Aviation Digital Data Service (ADDS)

Output produced by METARs form (1702 UTC 17 October 2017)
found at http://aviationweather.gov/adds/metars/
 
KAVL 171128Z 1712/1812 36006KT P6SM SKC 
     FM180100 00000KT P6SM SKC 
     FM181000 00000KT 2SM BR SCT003